createdAt,value
2024-03-26T00:05:47.748Z,11.40
2024-03-26T00:17:47.655Z,11.38
2024-03-26T00:29:47.736Z,11.37
2024-03-26T00:41:47.683Z,11.36
2024-03-26T00:53:47.726Z,11.34
2024-03-26T01:05:47.748Z,11.31
2024-03-26T01:17:47.723Z,11.31
2024-03-26T01:29:47.660Z,11.30
2024-03-26T01:41:47.751Z,11.29
2024-03-26T01:53:47.663Z,11.27
2024-03-26T02:05:47.690Z,11.26
2024-03-26T02:17:47.713Z,11.24
2024-03-26T02:29:47.656Z,11.23
2024-03-26T02:41:47.710Z,11.22
2024-03-26T02:53:47.714Z,11.20
2024-03-26T03:05:47.858Z,11.19
2024-03-26T03:17:47.774Z,11.18
2024-03-26T03:29:47.686Z,11.15
2024-03-26T03:41:47.715Z,11.16
2024-03-26T03:53:47.647Z,11.14
2024-03-26T04:05:47.759Z,11.13
2024-03-26T04:17:48.125Z,11.11
2024-03-26T04:29:47.660Z,11.10
2024-03-26T04:41:47.749Z,11.09
2024-03-26T04:53:47.648Z,11.07
2024-03-26T05:05:47.732Z,11.06
2024-03-26T05:17:47.752Z,11.05
2024-03-26T05:29:47.650Z,11.04
2024-03-26T05:41:47.683Z,11.03
2024-03-26T05:53:47.620Z,11.02
2024-03-26T06:05:47.639Z,11.01
2024-03-26T06:17:47.732Z,11.01
2024-03-26T06:29:47.632Z,11.00
2024-03-26T06:41:47.713Z,10.98
2024-03-26T06:53:47.685Z,10.97
2024-03-26T07:05:47.742Z,10.97
2024-03-26T07:17:47.685Z,10.98
2024-03-26T07:29:47.700Z,10.98
2024-03-26T07:41:47.807Z,10.96
2024-03-26T07:53:47.666Z,10.98
2024-03-26T08:05:47.740Z,10.99
2024-03-26T08:17:47.734Z,11.00
2024-03-26T08:29:47.629Z,11.01
2024-03-26T08:41:47.624Z,11.01
2024-03-26T08:53:47.712Z,11.03
2024-03-26T09:05:47.660Z,11.03
2024-03-26T09:17:47.784Z,11.04
2024-03-26T09:29:47.676Z,11.06
2024-03-26T09:41:47.632Z,11.10
2024-03-26T09:53:47.739Z,11.12
2024-03-26T10:05:47.642Z,11.11
2024-03-26T10:17:47.671Z,11.14
2024-03-26T10:29:47.650Z,11.17
2024-03-26T10:41:47.731Z,11.19
2024-03-26T10:53:47.628Z,11.27
2024-03-26T11:05:47.627Z,11.29
2024-03-26T11:17:47.721Z,11.31
2024-03-26T11:29:47.752Z,11.33
2024-03-26T11:41:47.722Z,11.39
2024-03-26T11:53:47.621Z,11.48
2024-03-26T12:05:47.629Z,11.54
2024-03-26T12:17:47.642Z,11.73
2024-03-26T12:29:47.624Z,11.67
2024-03-26T12:41:47.694Z,11.78
2024-03-26T12:53:47.641Z,11.94
2024-03-26T13:05:48.617Z,11.98
2024-03-26T13:17:47.679Z,12.09
2024-03-26T13:29:47.641Z,12.10
2024-03-26T13:41:47.734Z,12.49
2024-03-26T13:53:47.724Z,12.71
2024-03-26T14:05:47.647Z,12.70
2024-03-26T14:17:47.693Z,12.71
2024-03-26T14:29:47.729Z,12.73
2024-03-26T14:41:47.629Z,12.73
2024-03-26T14:53:47.685Z,12.73
2024-03-26T15:05:47.734Z,12.74
2024-03-26T15:17:47.741Z,12.74
2024-03-26T15:29:47.730Z,12.72
2024-03-26T15:41:47.630Z,12.72
2024-03-26T15:53:47.658Z,12.73
2024-03-26T16:05:47.744Z,12.73
2024-03-26T16:17:47.655Z,12.73
2024-03-26T16:29:47.631Z,12.70
2024-03-26T16:41:47.624Z,11.60
2024-03-26T16:53:47.638Z,11.64
2024-03-26T17:05:47.629Z,11.62
2024-03-26T17:17:47.753Z,11.58
2024-03-26T17:29:47.634Z,11.56
2024-03-26T17:41:47.732Z,11.52
2024-03-26T17:53:47.686Z,11.50
2024-03-26T18:05:47.702Z,11.48
2024-03-26T18:17:47.759Z,11.43
2024-03-26T18:29:47.636Z,11.43
2024-03-26T18:41:47.707Z,11.41
2024-03-26T18:53:47.628Z,11.38
2024-03-26T19:05:47.768Z,11.36
2024-03-26T19:17:47.739Z,11.29
2024-03-26T19:29:47.690Z,11.31
2024-03-26T19:41:47.631Z,11.82
2024-03-26T19:53:48.230Z,11.79
2024-03-26T20:05:47.671Z,11.77
2024-03-26T20:17:47.740Z,11.74
2024-03-26T20:29:47.784Z,11.72
2024-03-26T20:41:47.752Z,11.71
2024-03-26T20:53:47.674Z,11.67
2024-03-26T21:05:47.643Z,11.67
2024-03-26T21:17:47.639Z,11.64
2024-03-26T21:29:47.728Z,11.62
2024-03-26T21:41:47.662Z,11.61
2024-03-26T21:53:47.702Z,11.59
2024-03-26T22:05:47.747Z,11.58
2024-03-26T22:17:47.646Z,11.56
2024-03-26T22:29:47.700Z,11.53
2024-03-26T22:41:47.635Z,11.53
2024-03-26T22:53:47.640Z,11.51
2024-03-26T23:05:47.736Z,11.49
2024-03-26T23:17:47.691Z,11.47
2024-03-26T23:29:47.743Z,11.46
2024-03-26T23:41:47.726Z,11.44
2024-03-26T23:53:47.735Z,11.42
